createdAt,value
2023-04-18T00:01:19.053Z,91.90
2023-04-18T00:03:47.818Z,92.04
2023-04-18T00:06:15.244Z,92.19
2023-04-18T00:08:42.538Z,92.36
2023-04-18T00:11:09.843Z,92.49
2023-04-18T00:13:38.857Z,92.75
2023-04-18T00:16:08.504Z,92.89
2023-04-18T00:18:37.527Z,93.09
2023-04-18T00:21:05.280Z,93.18
2023-04-18T00:23:34.684Z,93.58
2023-04-18T00:26:02.660Z,93.73
2023-04-18T00:28:30.097Z,93.94
2023-04-18T00:30:57.499Z,93.91
2023-04-18T00:33:24.819Z,94.04
2023-04-18T00:35:52.720Z,94.04
2023-04-18T00:38:20.169Z,94.24
2023-04-18T00:40:48.721Z,94.18
2023-04-18T00:43:17.338Z,94.24
2023-04-18T00:45:44.897Z,94.29
2023-04-18T00:48:12.390Z,94.22
2023-04-18T00:50:42.043Z,94.24
2023-04-18T00:53:11.465Z,94.23
2023-04-18T00:55:39.280Z,94.38
2023-04-18T00:58:06.759Z,94.32
2023-04-18T01:00:34.589Z,94.21
2023-04-18T01:03:02.045Z,94.15
2023-04-18T01:05:29.537Z,94.10
2023-04-18T01:08:01.450Z,94.26
2023-04-18T01:10:31.217Z,94.28
2023-04-18T01:13:15.307Z,94.40
2023-04-18T01:15:44.389Z,94.53
2023-04-18T01:18:13.539Z,94.43
2023-04-18T01:20:44.223Z,94.56
2023-04-18T01:23:11.619Z,94.58
2023-04-18T01:25:39.557Z,94.33
2023-04-18T01:28:07.256Z,94.30
2023-04-18T01:30:35.047Z,94.34
2023-04-18T01:33:04.722Z,94.31
2023-04-18T01:35:33.845Z,94.20
2023-04-18T01:38:01.541Z,94.20
2023-04-18T01:40:30.511Z,94.31
2023-04-18T01:42:57.863Z,94.12
2023-04-18T01:45:25.450Z,94.04
2023-04-18T01:47:52.835Z,93.93
2023-04-18T01:50:20.308Z,93.98
2023-04-18T01:52:48.311Z,94.05
2023-04-18T01:55:16.737Z,94.08
2023-04-18T01:57:44.423Z,94.08
2023-04-18T02:00:12.447Z,94.18
2023-04-18T02:02:43.142Z,94.02
2023-04-18T02:05:11.082Z,93.98
2023-04-18T02:07:41.499Z,93.77
2023-04-18T02:10:10.854Z,93.73
2023-04-18T02:12:38.206Z,93.68
2023-04-18T02:15:06.130Z,93.47
2023-04-18T02:17:36.694Z,93.52
2023-04-18T02:20:04.708Z,93.21
2023-04-18T02:22:32.171Z,92.95
2023-04-18T02:25:01.048Z,92.86
2023-04-18T02:27:28.539Z,92.69
2023-04-18T02:29:57.903Z,92.06
2023-04-18T02:32:25.438Z,91.99
2023-04-18T02:34:52.752Z,92.12
2023-04-18T02:37:20.081Z,91.76
2023-04-18T02:39:47.399Z,91.34
2023-04-18T02:42:14.773Z,91.50
2023-04-18T02:44:42.170Z,91.13
2023-04-18T02:47:10.189Z,91.30
2023-04-18T02:49:41.308Z,91.07
2023-04-18T02:52:08.779Z,90.98
2023-04-18T02:54:36.181Z,90.74
2023-04-18T02:57:11.400Z,91.00
2023-04-18T02:59:47.816Z,90.94
2023-04-18T03:02:26.940Z,91.03
2023-04-18T03:04:59.218Z,91.14
2023-04-18T03:07:27.389Z,91.04
2023-04-18T03:09:54.981Z,91.11
2023-04-18T03:12:26.816Z,91.39
2023-04-18T03:14:54.197Z,91.44
2023-04-18T03:17:22.185Z,91.58
2023-04-18T03:19:50.270Z,91.70
2023-04-18T03:22:20.218Z,91.97
2023-04-18T03:24:55.404Z,92.25
2023-04-18T03:27:32.439Z,92.44
2023-04-18T03:30:00.499Z,92.63
2023-04-18T03:32:28.105Z,92.78
2023-04-18T03:34:55.372Z,92.89
2023-04-18T03:37:22.849Z,92.95
2023-04-18T03:39:54.960Z,93.02
2023-04-18T03:42:25.286Z,92.96
2023-04-18T03:44:52.588Z,92.81
2023-04-18T03:47:20.055Z,92.74
2023-04-18T03:49:51.476Z,92.88
2023-04-18T03:52:20.612Z,92.64
2023-04-18T03:54:47.873Z,92.63
2023-04-18T03:57:17.299Z,92.53
2023-04-18T03:59:46.069Z,92.48
2023-04-18T04:02:15.082Z,92.43
2023-04-18T04:04:43.244Z,92.39
2023-04-18T04:07:12.446Z,92.15
2023-04-18T04:09:39.740Z,92.19
2023-04-18T04:12:07.193Z,92.23
2023-04-18T04:14:34.895Z,92.08
2023-04-18T04:17:02.832Z,92.07
2023-04-18T04:19:31.292Z,91.99
2023-04-18T04:22:16.019Z,91.91
2023-04-18T04:24:43.414Z,91.97
2023-04-18T04:27:14.128Z,92.00
2023-04-18T04:29:44.088Z,92.02
2023-04-18T04:32:13.355Z,92.08
2023-04-18T04:34:42.013Z,91.89
2023-04-18T04:37:14.384Z,92.07
2023-04-18T04:39:57.345Z,92.03
2023-04-18T04:42:56.686Z,91.96
2023-04-18T04:45:30.588Z,91.66
2023-04-18T04:47:57.936Z,91.34
2023-04-18T04:50:25.941Z,91.42
2023-04-18T04:52:53.225Z,91.33
2023-04-18T04:55:20.667Z,91.12
2023-04-18T04:57:48.210Z,90.89
2023-04-18T05:00:30.292Z,90.61
2023-04-18T05:02:58.007Z,90.44
2023-04-18T05:05:27.126Z,90.30
2023-04-18T05:07:55.043Z,89.89
2023-04-18T05:10:22.414Z,89.86
2023-04-18T05:12:49.785Z,89.53
2023-04-18T05:15:17.246Z,89.25
2023-04-18T05:17:44.750Z,89.25
2023-04-18T05:20:12.345Z,88.68
2023-04-18T05:22:40.089Z,88.53
2023-04-18T05:25:08.571Z,87.74
2023-04-18T05:27:35.869Z,86.85
2023-04-18T05:30:03.290Z,84.63
2023-04-18T05:32:30.720Z,81.61
2023-04-18T05:34:58.028Z,77.36
2023-04-18T05:37:25.741Z,76.18
2023-04-18T05:39:53.039Z,72.85
2023-04-18T05:42:20.387Z,71.29
2023-04-18T05:44:47.620Z,70.90
2023-04-18T05:47:14.954Z,70.09
2023-04-18T05:49:42.280Z,69.53
2023-04-18T05:52:09.724Z,70.45
2023-04-18T05:54:36.965Z,70.81
2023-04-18T05:57:04.769Z,70.68
2023-04-18T05:59:32.208Z,71.59
2023-04-18T06:01:59.669Z,71.65
2023-04-18T06:04:27.164Z,71.78
2023-04-18T06:06:54.545Z,71.67
2023-04-18T06:09:21.886Z,71.00
2023-04-18T06:11:49.111Z,67.93
2023-04-18T06:14:16.529Z,66.12
2023-04-18T06:16:45.235Z,63.08
2023-04-18T06:19:12.448Z,59.51
2023-04-18T06:21:42.359Z,56.68
2023-04-18T06:24:09.995Z,55.57
2023-04-18T06:26:37.474Z,56.11
2023-04-18T06:29:04.751Z,55.57
2023-04-18T06:31:32.092Z,52.67
2023-04-18T06:33:59.308Z,53.49
2023-04-18T06:36:27.979Z,54.15
2023-04-18T06:38:55.480Z,52.03
2023-04-18T06:41:23.266Z,49.73
2023-04-18T06:44:02.595Z,51.07
2023-04-18T06:46:31.517Z,49.28
2023-04-18T06:48:59.135Z,51.49
2023-04-18T06:51:26.595Z,52.77
2023-04-18T06:53:54.120Z,55.02
2023-04-18T06:56:21.550Z,56.77
2023-04-18T06:58:49.643Z,56.85
2023-04-18T07:01:17.067Z,58.36
2023-04-18T07:03:44.585Z,58.80
2023-04-18T07:06:12.113Z,60.15
2023-04-18T07:08:39.496Z,61.08
2023-04-18T07:11:07.202Z,59.18
2023-04-18T07:13:34.421Z,60.90
2023-04-18T07:16:01.928Z,60.46
2023-04-18T07:18:37.161Z,59.95
2023-04-18T07:21:08.090Z,60.38
2023-04-18T07:23:36.052Z,60.11
2023-04-18T07:26:03.770Z,61.56
2023-04-18T07:28:32.339Z,62.06
2023-04-18T07:31:00.000Z,63.28
2023-04-18T07:33:27.378Z,63.88
2023-04-18T07:35:54.670Z,65.31
2023-04-18T07:38:21.902Z,65.75
2023-04-18T07:40:59.834Z,67.37
2023-04-18T07:43:27.256Z,67.97
2023-04-18T07:45:54.921Z,68.58
2023-04-18T07:48:31.190Z,69.94
2023-04-18T07:50:58.868Z,70.88
2023-04-18T07:53:26.368Z,70.22
2023-04-18T07:55:55.009Z,69.16
2023-04-18T07:58:22.451Z,69.35
2023-04-18T08:00:49.745Z,67.92
2023-04-18T08:03:17.241Z,67.60
2023-04-18T08:05:44.625Z,66.60
2023-04-18T08:08:12.709Z,66.84
2023-04-18T08:10:40.126Z,65.78
2023-04-18T08:13:07.753Z,64.02
2023-04-18T08:15:35.016Z,63.67
2023-04-18T08:18:02.610Z,63.62
2023-04-18T08:20:30.101Z,63.95
2023-04-18T08:23:07.472Z,64.26
2023-04-18T08:25:36.840Z,62.88
2023-04-18T08:28:04.751Z,61.61
2023-04-18T08:30:32.276Z,62.52
2023-04-18T08:33:00.922Z,62.36
2023-04-18T08:35:28.506Z,63.12
2023-04-18T08:37:55.979Z,64.89
2023-04-18T08:40:23.525Z,63.63
2023-04-18T08:42:53.287Z,62.74
2023-04-18T08:45:21.187Z,63.65
2023-04-18T08:47:48.641Z,64.11
2023-04-18T08:50:17.068Z,64.58
2023-04-18T08:52:50.452Z,65.98
2023-04-18T08:55:19.369Z,66.83
2023-04-18T08:57:47.873Z,67.04
2023-04-18T09:00:18.335Z,67.96
2023-04-18T09:02:47.581Z,67.67
2023-04-18T09:05:19.258Z,67.89
2023-04-18T09:07:48.182Z,68.08
2023-04-18T09:10:33.594Z,67.59
2023-04-18T09:13:05.976Z,68.22
2023-04-18T09:15:33.346Z,67.97
2023-04-18T09:18:03.465Z,67.86
2023-04-18T09:20:38.311Z,67.41
2023-04-18T09:23:16.578Z,66.19
2023-04-18T09:25:48.992Z,65.31
2023-04-18T09:28:29.256Z,65.79
2023-04-18T09:30:57.505Z,66.31
2023-04-18T09:33:35.018Z,66.27
2023-04-18T09:36:21.582Z,66.27
2023-04-18T09:38:50.893Z,67.46
2023-04-18T09:41:21.416Z,66.76
2023-04-18T09:43:49.262Z,67.63
2023-04-18T09:46:18.187Z,67.36
2023-04-18T09:48:45.918Z,67.89
2023-04-18T09:51:17.019Z,67.79
2023-04-18T09:53:45.340Z,68.47
2023-04-18T09:56:23.609Z,67.63
2023-04-18T09:58:57.465Z,67.80
2023-04-18T10:01:29.533Z,68.29
2023-04-18T10:03:58.123Z,68.51
2023-04-18T10:06:27.732Z,68.54
2023-04-18T10:08:56.304Z,67.29
2023-04-18T10:11:24.800Z,67.77
2023-04-18T10:13:57.921Z,66.65
2023-04-18T10:16:26.459Z,65.38
2023-04-18T10:18:53.854Z,64.16
2023-04-18T10:21:22.302Z,64.42
2023-04-18T10:23:50.657Z,64.52
2023-04-18T10:26:18.044Z,63.39
2023-04-18T10:28:53.849Z,62.17
2023-04-18T10:31:23.043Z,61.25
2023-04-18T10:34:18.479Z,59.62
2023-04-18T10:37:04.803Z,60.15
2023-04-18T10:39:51.360Z,61.97
2023-04-18T10:42:18.763Z,60.20
2023-04-18T10:45:22.419Z,60.27
2023-04-18T10:47:50.293Z,60.45
2023-04-18T10:50:18.103Z,61.70
2023-04-18T10:52:45.495Z,60.96
2023-04-18T10:55:24.732Z,62.57
2023-04-18T10:57:52.197Z,63.16
2023-04-18T11:00:22.041Z,63.12
2023-04-18T11:03:00.809Z,63.55
2023-04-18T11:05:29.576Z,63.90
2023-04-18T11:07:57.019Z,64.88
2023-04-18T11:10:27.068Z,64.74
2023-04-18T11:12:55.612Z,62.98
2023-04-18T11:15:25.045Z,63.95
2023-04-18T11:18:10.519Z,63.06
2023-04-18T11:20:47.792Z,63.06
2023-04-18T11:23:21.778Z,64.14
2023-04-18T11:25:54.760Z,66.80
2023-04-18T11:28:22.913Z,67.48
2023-04-18T11:30:50.219Z,67.23
2023-04-18T11:33:17.598Z,67.82
2023-04-18T11:35:46.503Z,67.63
2023-04-18T11:38:16.573Z,68.75
2023-04-18T11:40:51.322Z,68.38
2023-04-18T11:43:25.981Z,68.36
2023-04-18T11:45:57.104Z,68.91
2023-04-18T11:48:25.266Z,68.12
2023-04-18T11:50:52.489Z,67.08
2023-04-18T11:53:37.222Z,67.02
2023-04-18T11:56:05.379Z,66.26
2023-04-18T11:58:37.045Z,66.60
2023-04-18T12:01:36.849Z,65.80
2023-04-18T12:04:06.241Z,65.31
2023-04-18T12:06:50.791Z,65.20
2023-04-18T12:09:19.352Z,63.87
2023-04-18T12:12:06.971Z,63.95
2023-04-18T12:14:36.340Z,63.55
2023-04-18T12:17:04.246Z,63.82
2023-04-18T12:19:33.165Z,63.22
2023-04-18T12:22:03.526Z,62.49
2023-04-18T12:24:32.732Z,62.65
2023-04-18T12:27:00.469Z,63.14
2023-04-18T12:29:29.493Z,62.36
2023-04-18T12:31:57.106Z,62.48
2023-04-18T12:34:24.437Z,64.78
2023-04-18T12:36:52.732Z,66.14
2023-04-18T12:39:20.106Z,65.99
2023-04-18T12:41:49.668Z,66.45
2023-04-18T12:44:17.686Z,66.92
2023-04-18T12:46:48.476Z,66.71
2023-04-18T12:49:16.187Z,67.19
2023-04-18T12:51:44.005Z,67.51
2023-04-18T12:54:11.577Z,67.27
2023-04-18T12:56:39.037Z,68.52
2023-04-18T12:59:06.282Z,67.69
2023-04-18T13:01:33.618Z,68.85
2023-04-18T13:04:11.832Z,68.90
2023-04-18T13:06:40.834Z,69.32
2023-04-18T13:09:08.516Z,69.47
2023-04-18T13:11:35.892Z,69.57
2023-04-18T13:14:03.127Z,70.08
2023-04-18T13:16:30.440Z,70.76
2023-04-18T13:19:00.772Z,71.06
2023-04-18T13:21:28.556Z,70.40
2023-04-18T13:23:55.897Z,70.24
2023-04-18T13:26:23.186Z,69.86
2023-04-18T13:28:50.614Z,69.72
2023-04-18T13:31:17.861Z,69.04
2023-04-18T13:33:45.220Z,69.91
2023-04-18T13:36:12.573Z,69.48
2023-04-18T13:38:40.250Z,69.04
2023-04-18T13:41:12.899Z,68.59
2023-04-18T13:43:41.179Z,67.27
2023-04-18T13:46:08.503Z,67.38
2023-04-18T13:48:35.947Z,67.50
2023-04-18T13:51:03.534Z,69.00
2023-04-18T13:53:31.250Z,68.82
2023-04-18T13:55:58.973Z,69.21
2023-04-18T13:58:26.310Z,69.83
2023-04-18T14:00:54.289Z,70.00
2023-04-18T14:03:21.666Z,70.16
2023-04-18T14:05:48.974Z,70.41
2023-04-18T14:08:16.266Z,69.97
2023-04-18T14:10:43.579Z,70.27
2023-04-18T14:13:10.968Z,70.61
2023-04-18T14:15:38.230Z,71.44
2023-04-18T14:18:05.648Z,71.58
2023-04-18T14:20:35.175Z,71.98
2023-04-18T14:23:02.442Z,72.86
2023-04-18T14:25:30.509Z,73.14
2023-04-18T14:28:09.939Z,73.42
2023-04-18T14:30:38.627Z,74.19
2023-04-18T14:33:06.505Z,75.03
2023-04-18T14:35:33.951Z,74.73
2023-04-18T14:38:01.350Z,74.93
2023-04-18T14:40:29.512Z,74.85
2023-04-18T14:42:58.260Z,75.29
2023-04-18T14:45:25.557Z,74.88
2023-04-18T14:47:54.046Z,75.60
2023-04-18T14:50:21.542Z,75.71
2023-04-18T14:52:48.882Z,76.08
2023-04-18T14:55:16.278Z,76.48
2023-04-18T14:57:43.606Z,77.51
2023-04-18T15:00:12.196Z,77.20
2023-04-18T15:02:40.061Z,78.24
2023-04-18T15:05:08.871Z,78.20
2023-04-18T15:07:38.369Z,78.86
2023-04-18T15:10:06.409Z,78.97
2023-04-18T15:12:33.757Z,79.45
2023-04-18T15:15:01.037Z,79.63
2023-04-18T15:17:28.775Z,79.55
2023-04-18T15:19:55.979Z,78.95
2023-04-18T15:22:23.436Z,78.37
2023-04-18T15:24:51.015Z,78.17
2023-04-18T15:27:18.260Z,77.78
2023-04-18T15:29:45.822Z,77.18
2023-04-18T15:32:14.882Z,76.76
2023-04-18T15:34:42.167Z,76.11
2023-04-18T15:37:09.899Z,76.30
2023-04-18T15:39:37.473Z,77.05
2023-04-18T15:42:04.892Z,77.21
2023-04-18T15:44:32.199Z,78.04
2023-04-18T15:47:01.968Z,78.75
2023-04-18T15:49:29.271Z,79.33
2023-04-18T15:51:57.243Z,79.90
2023-04-18T15:54:24.505Z,79.88
2023-04-18T15:56:52.023Z,80.23
2023-04-18T15:59:19.389Z,80.58
2023-04-18T16:01:46.672Z,80.83
2023-04-18T16:04:14.315Z,81.02
2023-04-18T16:06:42.148Z,80.97
2023-04-18T16:09:10.244Z,81.42
2023-04-18T16:11:37.511Z,81.51
2023-04-18T16:14:04.816Z,80.06
2023-04-18T16:16:32.362Z,80.27
2023-04-18T16:18:59.701Z,80.00
2023-04-18T16:21:28.622Z,79.38
2023-04-18T16:23:56.005Z,79.02
2023-04-18T16:26:25.475Z,78.73
2023-04-18T16:28:52.749Z,78.54
2023-04-18T16:31:20.095Z,77.95
2023-04-18T16:33:47.441Z,77.37
2023-04-18T16:36:14.803Z,77.52
2023-04-18T16:38:42.074Z,77.47
2023-04-18T16:41:09.678Z,77.57
2023-04-18T16:43:38.296Z,77.61
2023-04-18T16:46:06.057Z,77.52
2023-04-18T16:48:33.543Z,77.85
2023-04-18T16:51:00.881Z,76.58
2023-04-18T16:53:28.275Z,76.19
2023-04-18T16:55:55.613Z,76.72
2023-04-18T16:58:23.865Z,76.94
2023-04-18T17:00:51.448Z,77.16
2023-04-18T17:03:18.866Z,77.46
2023-04-18T17:05:46.889Z,77.76
2023-04-18T17:08:14.089Z,78.10
2023-04-18T17:10:41.453Z,78.24
2023-04-18T17:13:08.686Z,78.26
2023-04-18T17:15:36.886Z,78.56
2023-04-18T17:18:04.456Z,78.59
2023-04-18T17:20:31.805Z,78.89
2023-04-18T17:22:59.201Z,78.66
2023-04-18T17:25:26.504Z,78.36
2023-04-18T17:27:53.804Z,78.50
2023-04-18T17:30:21.260Z,78.47
2023-04-18T17:32:49.550Z,78.65
2023-04-18T17:35:17.133Z,78.48
2023-04-18T17:37:44.480Z,78.41
2023-04-18T17:40:12.357Z,78.59
2023-04-18T17:42:39.870Z,78.49
2023-04-18T17:45:08.888Z,78.90
2023-04-18T17:47:37.033Z,78.65
2023-04-18T17:50:05.090Z,78.81
2023-04-18T17:52:32.823Z,78.69
2023-04-18T17:55:02.078Z,78.71
2023-04-18T17:57:31.073Z,78.66
2023-04-18T17:59:58.295Z,79.09
2023-04-18T18:02:25.756Z,79.05
2023-04-18T18:04:53.254Z,78.93
2023-04-18T18:07:20.586Z,79.03
2023-04-18T18:09:47.818Z,79.46
2023-04-18T18:12:15.123Z,79.42
2023-04-18T18:14:42.409Z,79.42
2023-04-18T18:17:09.721Z,79.71
2023-04-18T18:19:37.115Z,79.66
2023-04-18T18:22:04.512Z,79.81
2023-04-18T18:24:31.819Z,79.92
2023-04-18T18:26:59.359Z,80.10
2023-04-18T18:29:26.657Z,80.28
2023-04-18T18:31:53.960Z,80.41
2023-04-18T18:34:21.940Z,80.66
2023-04-18T18:36:49.258Z,80.83
2023-04-18T18:39:16.914Z,81.18
2023-04-18T18:41:44.369Z,81.67
2023-04-18T18:44:12.560Z,81.84
2023-04-18T18:46:41.102Z,82.26
2023-04-18T18:49:10.276Z,82.33
2023-04-18T18:51:37.581Z,82.63
2023-04-18T18:54:04.823Z,82.79
2023-04-18T18:56:32.138Z,82.95
2023-04-18T18:58:59.379Z,83.06
2023-04-18T19:01:26.702Z,82.96
2023-04-18T19:03:54.131Z,83.31
2023-04-18T19:06:21.501Z,83.25
2023-04-18T19:08:48.675Z,83.31
2023-04-18T19:11:16.673Z,83.37
2023-04-18T19:13:43.934Z,83.36
2023-04-18T19:16:11.466Z,83.12
2023-04-18T19:18:39.052Z,83.43
2023-04-18T19:21:06.340Z,83.53
2023-04-18T19:23:33.583Z,83.92
2023-04-18T19:26:00.860Z,83.93
2023-04-18T19:28:28.191Z,84.25
2023-04-18T19:30:55.589Z,84.06
2023-04-18T19:33:25.370Z,84.18
2023-04-18T19:35:52.611Z,84.23
2023-04-18T19:38:20.182Z,84.51
2023-04-18T19:40:47.604Z,84.67
2023-04-18T19:43:14.983Z,84.75
2023-04-18T19:45:42.354Z,84.93
2023-04-18T19:48:09.699Z,85.03
2023-04-18T19:50:40.792Z,85.23
2023-04-18T19:53:08.570Z,85.72
2023-04-18T19:55:35.909Z,86.01
2023-04-18T19:58:03.364Z,86.13
2023-04-18T20:00:30.821Z,86.33
2023-04-18T20:02:59.657Z,86.37
2023-04-18T20:05:27.071Z,86.51
2023-04-18T20:07:54.415Z,86.57
2023-04-18T20:10:22.584Z,86.70
2023-04-18T20:12:50.255Z,86.76
2023-04-18T20:15:17.697Z,86.86
2023-04-18T20:17:45.093Z,87.01
2023-04-18T20:20:13.425Z,87.05
2023-04-18T20:22:42.172Z,87.30
2023-04-18T20:25:09.465Z,87.44
2023-04-18T20:27:36.756Z,87.53
2023-04-18T20:30:04.931Z,87.49
2023-04-18T20:32:32.606Z,87.58
2023-04-18T20:35:00.362Z,87.41
2023-04-18T20:37:28.060Z,87.38
2023-04-18T20:39:56.216Z,87.28
2023-04-18T20:42:24.028Z,87.17
2023-04-18T20:44:51.690Z,87.32
2023-04-18T20:47:19.073Z,87.34
2023-04-18T20:49:46.622Z,87.46
2023-04-18T20:52:14.738Z,87.39
2023-04-18T20:54:42.165Z,87.25
2023-04-18T20:57:09.574Z,87.21
2023-04-18T20:59:39.935Z,87.30
2023-04-18T21:02:08.531Z,87.21
2023-04-18T21:04:36.746Z,87.14
2023-04-18T21:07:04.244Z,86.93
2023-04-18T21:09:36.742Z,86.88
2023-04-18T21:12:04.551Z,86.82
2023-04-18T21:14:31.849Z,86.87
2023-04-18T21:16:59.357Z,86.88
2023-04-18T21:19:26.710Z,86.94
2023-04-18T21:21:54.050Z,86.94
2023-04-18T21:24:21.311Z,87.02
2023-04-18T21:26:48.572Z,86.87
2023-04-18T21:29:16.110Z,86.63
2023-04-18T21:31:43.513Z,86.69
2023-04-18T21:34:11.621Z,86.28
2023-04-18T21:36:40.454Z,85.93
2023-04-18T21:39:08.679Z,86.14
2023-04-18T21:41:36.170Z,85.95
2023-04-18T21:44:03.770Z,85.76
2023-04-18T21:46:31.030Z,85.88
2023-04-18T21:48:58.285Z,85.43
2023-04-18T21:51:25.599Z,85.44
2023-04-18T21:53:53.187Z,85.69
2023-04-18T21:56:20.473Z,85.61
2023-04-18T21:58:48.089Z,85.56
2023-04-18T22:01:15.331Z,85.56
2023-04-18T22:03:42.884Z,85.69
2023-04-18T22:06:10.748Z,85.62
2023-04-18T22:08:38.040Z,85.80
2023-04-18T22:11:05.529Z,85.65
2023-04-18T22:13:36.021Z,85.50
2023-04-18T22:16:04.235Z,85.47
2023-04-18T22:18:35.252Z,85.44
2023-04-18T22:21:04.182Z,85.44
2023-04-18T22:23:31.812Z,85.44
2023-04-18T22:25:58.968Z,85.59
2023-04-18T22:28:28.351Z,85.54
2023-04-18T22:30:55.718Z,85.51
2023-04-18T22:33:23.253Z,85.72
2023-04-18T22:35:50.640Z,85.65
2023-04-18T22:38:17.959Z,85.78
2023-04-18T22:40:45.142Z,85.75
2023-04-18T22:43:12.420Z,85.68
2023-04-18T22:45:39.766Z,85.64
2023-04-18T22:48:11.819Z,85.76
2023-04-18T22:50:42.985Z,85.76
2023-04-18T22:53:15.472Z,85.79
2023-04-18T22:55:44.570Z,85.71
2023-04-18T22:58:12.472Z,85.89
2023-04-18T23:00:39.905Z,85.98
2023-04-18T23:03:07.351Z,85.96
2023-04-18T23:05:35.044Z,86.03
2023-04-18T23:08:02.323Z,85.98
2023-04-18T23:10:29.715Z,86.09
2023-04-18T23:12:57.006Z,86.08
2023-04-18T23:15:24.497Z,86.32
2023-04-18T23:17:53.379Z,86.28
2023-04-18T23:20:21.729Z,86.28
2023-04-18T23:22:52.072Z,86.28
2023-04-18T23:25:22.468Z,86.10
2023-04-18T23:27:49.742Z,86.21
2023-04-18T23:30:17.556Z,86.15
2023-04-18T23:32:45.419Z,86.24
2023-04-18T23:35:12.770Z,86.37
2023-04-18T23:37:40.173Z,86.37
2023-04-18T23:40:08.248Z,86.40
2023-04-18T23:42:36.173Z,86.39
2023-04-18T23:45:04.398Z,86.34
2023-04-18T23:47:31.984Z,86.46
2023-04-18T23:49:59.309Z,86.40
2023-04-18T23:52:26.602Z,86.26
2023-04-18T23:54:53.840Z,86.27
2023-04-18T23:57:21.048Z,86.34
2023-04-18T23:59:48.291Z,86.44
